sensor_id;sensor_type;location;lat;lon;timestamp;P1;durP1;ratioP1;P2;durP2;ratioP2
26060;SDS011;36331;51.378;0.018;2022-09-02T00:00:50;15.57;;;7.97;;
26060;SDS011;36331;51.378;0.018;2022-09-02T00:03:21;15.15;;;7.03;;
26060;SDS011;36331;51.378;0.018;2022-09-02T00:05:50;9.55;;;6.53;;
26060;SDS011;36331;51.378;0.018;2022-09-02T00:08:19;13.88;;;6.78;;
26060;SDS011;36331;51.378;0.018;2022-09-02T00:10:48;14.30;;;7.55;;
26060;SDS011;36331;51.378;0.018;2022-09-02T00:13:18;12.95;;;6.13;;
26060;SDS011;36331;51.378;0.018;2022-09-02T00:15:47;10.60;;;6.40;;
26060;SDS011;36331;51.378;0.018;2022-09-02T00:18:16;8.95;;;6.43;;
26060;SDS011;36331;51.378;0.018;2022-09-02T00:20:47;9.65;;;6.63;;
26060;SDS011;36331;51.378;0.018;2022-09-02T00:23:17;10.18;;;5.63;;
26060;SDS011;36331;51.378;0.018;2022-09-02T00:25:46;9.38;;;5.93;;
26060;SDS011;36331;51.378;0.018;2022-09-02T00:28:15;12.38;;;6.03;;
26060;SDS011;36331;51.378;0.018;2022-09-02T00:30:46;11.50;;;5.13;;
26060;SDS011;36331;51.378;0.018;2022-09-02T00:33:15;12.02;;;6.53;;
26060;SDS011;36331;51.378;0.018;2022-09-02T00:35:46;8.88;;;6.10;;
26060;SDS011;36331;51.378;0.018;2022-09-02T00:38:16;10.27;;;5.50;;
26060;SDS011;36331;51.378;0.018;2022-09-02T00:40:46;11.38;;;5.82;;
26060;SDS011;36331;51.378;0.018;2022-09-02T00:43:28;10.43;;;6.00;;
26060;SDS011;36331;51.378;0.018;2022-09-02T00:46:05;12.07;;;5.47;;
26060;SDS011;36331;51.378;0.018;2022-09-02T00:48:35;7.25;;;5.57;;
26060;SDS011;36331;51.378;0.018;2022-09-02T00:51:07;11.63;;;5.72;;
26060;SDS011;36331;51.378;0.018;2022-09-02T00:53:38;11.80;;;5.82;;
26060;SDS011;36331;51.378;0.018;2022-09-02T00:56:09;14.05;;;5.47;;
26060;SDS011;36331;51.378;0.018;2022-09-02T00:58:39;9.73;;;5.78;;
26060;SDS011;36331;51.378;0.018;2022-09-02T01:01:10;6.75;;;5.80;;
26060;SDS011;36331;51.378;0.018;2022-09-02T01:03:39;9.23;;;5.35;;
26060;SDS011;36331;51.378;0.018;2022-09-02T01:06:11;10.20;;;5.80;;
26060;SDS011;36331;51.378;0.018;2022-09-02T01:08:43;8.45;;;5.82;;
26060;SDS011;36331;51.378;0.018;2022-09-02T01:11:13;9.63;;;6.83;;
26060;SDS011;36331;51.378;0.018;2022-09-02T01:13:46;9.60;;;6.47;;
26060;SDS011;36331;51.378;0.018;2022-09-02T01:16:16;10.60;;;6.65;;
26060;SDS011;36331;51.378;0.018;2022-09-02T01:18:50;10.70;;;6.72;;
26060;SDS011;36331;51.378;0.018;2022-09-02T01:21:21;9.52;;;5.72;;
26060;SDS011;36331;51.378;0.018;2022-09-02T01:23:52;9.57;;;7.45;;
26060;SDS011;36331;51.378;0.018;2022-09-02T01:26:22;10.38;;;7.30;;
26060;SDS011;36331;51.378;0.018;2022-09-02T01:28:51;8.57;;;7.18;;
26060;SDS011;36331;51.378;0.018;2022-09-02T01:31:20;15.60;;;7.75;;
26060;SDS011;36331;51.378;0.018;2022-09-02T01:33:49;9.48;;;6.25;;
26060;SDS011;36331;51.378;0.018;2022-09-02T01:36:19;10.02;;;6.90;;
26060;SDS011;36331;51.378;0.018;2022-09-02T01:38:48;11.93;;;6.10;;
26060;SDS011;36331;51.378;0.018;2022-09-02T01:41:19;9.43;;;5.97;;
26060;SDS011;36331;51.378;0.018;2022-09-02T01:43:48;8.52;;;6.88;;
26060;SDS011;36331;51.378;0.018;2022-09-02T01:46:17;11.15;;;6.45;;
26060;SDS011;36331;51.378;0.018;2022-09-02T01:48:47;8.43;;;7.30;;
26060;SDS011;36331;51.378;0.018;2022-09-02T01:51:16;8.95;;;6.60;;
26060;SDS011;36331;51.378;0.018;2022-09-02T01:53:46;10.98;;;7.05;;
26060;SDS011;36331;51.378;0.018;2022-09-02T01:56:15;8.73;;;6.50;;
26060;SDS011;36331;51.378;0.018;2022-09-02T01:58:46;13.00;;;6.72;;
26060;SDS011;36331;51.378;0.018;2022-09-02T02:01:15;10.40;;;6.13;;
26060;SDS011;36331;51.378;0.018;2022-09-02T02:03:45;11.27;;;5.85;;
26060;SDS011;36331;51.378;0.018;2022-09-02T02:06:16;10.85;;;5.78;;
26060;SDS011;36331;51.378;0.018;2022-09-02T02:08:47;8.40;;;5.68;;
26060;SDS011;36331;51.378;0.018;2022-09-02T02:11:17;10.10;;;5.75;;
26060;SDS011;36331;51.378;0.018;2022-09-02T02:13:51;10.02;;;6.15;;
26060;SDS011;36331;51.378;0.018;2022-09-02T02:16:20;10.05;;;6.35;;
26060;SDS011;36331;51.378;0.018;2022-09-02T02:18:50;9.65;;;6.35;;
26060;SDS011;36331;51.378;0.018;2022-09-02T02:21:19;8.88;;;5.90;;
26060;SDS011;36331;51.378;0.018;2022-09-02T02:23:49;9.25;;;5.82;;
26060;SDS011;36331;51.378;0.018;2022-09-02T02:26:19;9.15;;;6.60;;
26060;SDS011;36331;51.378;0.018;2022-09-02T02:28:50;8.32;;;6.30;;
26060;SDS011;36331;51.378;0.018;2022-09-02T02:31:20;9.75;;;5.78;;
26060;SDS011;36331;51.378;0.018;2022-09-02T02:33:50;6.72;;;5.95;;
26060;SDS011;36331;51.378;0.018;2022-09-02T02:36:20;8.32;;;6.28;;
26060;SDS011;36331;51.378;0.018;2022-09-02T02:38:50;11.18;;;6.05;;
26060;SDS011;36331;51.378;0.018;2022-09-02T02:41:19;9.95;;;6.25;;
26060;SDS011;36331;51.378;0.018;2022-09-02T02:43:48;9.27;;;5.93;;
26060;SDS011;36331;51.378;0.018;2022-09-02T02:46:17;9.98;;;6.28;;
26060;SDS011;36331;51.378;0.018;2022-09-02T02:48:48;8.35;;;5.50;;
26060;SDS011;36331;51.378;0.018;2022-09-02T02:51:17;10.50;;;5.32;;
26060;SDS011;36331;51.378;0.018;2022-09-02T02:53:49;10.02;;;5.65;;
26060;SDS011;36331;51.378;0.018;2022-09-02T02:56:24;9.38;;;5.35;;
26060;SDS011;36331;51.378;0.018;2022-09-02T02:58:54;9.50;;;5.57;;
26060;SDS011;36331;51.378;0.018;2022-09-02T03:01:23;10.13;;;5.43;;
26060;SDS011;36331;51.378;0.018;2022-09-02T03:03:57;8.45;;;5.35;;
26060;SDS011;36331;51.378;0.018;2022-09-02T03:06:26;9.38;;;5.38;;
26060;SDS011;36331;51.378;0.018;2022-09-02T03:08:56;6.85;;;5.35;;
26060;SDS011;36331;51.378;0.018;2022-09-02T03:11:27;7.00;;;5.28;;
26060;SDS011;36331;51.378;0.018;2022-09-02T03:13:56;6.15;;;4.88;;
26060;SDS011;36331;51.378;0.018;2022-09-02T03:16:28;10.23;;;6.28;;
26060;SDS011;36331;51.378;0.018;2022-09-02T03:18:59;9.73;;;5.20;;
26060;SDS011;36331;51.378;0.018;2022-09-02T03:21:30;6.78;;;4.78;;
26060;SDS011;36331;51.378;0.018;2022-09-02T03:24:06;5.68;;;4.50;;
26060;SDS011;36331;51.378;0.018;2022-09-02T03:26:36;7.97;;;5.00;;
26060;SDS011;36331;51.378;0.018;2022-09-02T03:29:05;10.75;;;5.22;;
26060;SDS011;36331;51.378;0.018;2022-09-02T03:31:35;10.05;;;5.75;;
26060;SDS011;36331;51.378;0.018;2022-09-02T03:34:07;9.10;;;5.60;;
26060;SDS011;36331;51.378;0.018;2022-09-02T03:36:38;6.57;;;5.43;;
26060;SDS011;36331;51.378;0.018;2022-09-02T03:39:10;7.85;;;5.50;;
26060;SDS011;36331;51.378;0.018;2022-09-02T03:41:42;10.10;;;5.40;;
26060;SDS011;36331;51.378;0.018;2022-09-02T03:44:11;8.73;;;5.25;;
26060;SDS011;36331;51.378;0.018;2022-09-02T03:46:42;11.23;;;5.22;;
26060;SDS011;36331;51.378;0.018;2022-09-02T03:49:12;8.77;;;4.82;;
26060;SDS011;36331;51.378;0.018;2022-09-02T03:51:41;8.35;;;4.82;;
26060;SDS011;36331;51.378;0.018;2022-09-02T03:54:11;9.77;;;5.43;;
26060;SDS011;36331;51.378;0.018;2022-09-02T03:56:41;10.43;;;5.28;;
26060;SDS011;36331;51.378;0.018;2022-09-02T03:59:13;7.22;;;5.40;;
26060;SDS011;36331;51.378;0.018;2022-09-02T04:01:42;9.60;;;5.75;;
26060;SDS011;36331;51.378;0.018;2022-09-02T04:04:12;9.60;;;5.03;;
26060;SDS011;36331;51.378;0.018;2022-09-02T04:06:49;7.75;;;4.85;;
26060;SDS011;36331;51.378;0.018;2022-09-02T04:09:19;7.90;;;4.72;;
26060;SDS011;36331;51.378;0.018;2022-09-02T04:11:48;8.25;;;4.85;;
26060;SDS011;36331;51.378;0.018;2022-09-02T04:14:17;8.90;;;4.88;;
26060;SDS011;36331;51.378;0.018;2022-09-02T04:16:47;9.57;;;5.13;;
26060;SDS011;36331;51.378;0.018;2022-09-02T04:19:19;12.20;;;5.00;;
26060;SDS011;36331;51.378;0.018;2022-09-02T04:21:49;9.97;;;4.37;;
26060;SDS011;36331;51.378;0.018;2022-09-02T04:24:19;10.10;;;4.82;;
26060;SDS011;36331;51.378;0.018;2022-09-02T04:26:51;9.60;;;4.63;;
26060;SDS011;36331;51.378;0.018;2022-09-02T04:29:20;8.98;;;4.50;;
26060;SDS011;36331;51.378;0.018;2022-09-02T04:31:51;6.57;;;4.13;;
26060;SDS011;36331;51.378;0.018;2022-09-02T04:34:28;8.13;;;4.30;;
26060;SDS011;36331;51.378;0.018;2022-09-02T04:36:59;7.53;;;4.63;;
26060;SDS011;36331;51.378;0.018;2022-09-02T04:39:29;7.47;;;4.78;;
26060;SDS011;36331;51.378;0.018;2022-09-02T04:41:59;9.45;;;4.60;;
26060;SDS011;36331;51.378;0.018;2022-09-02T04:44:35;9.02;;;5.25;;
26060;SDS011;36331;51.378;0.018;2022-09-02T04:47:06;6.90;;;4.90;;
26060;SDS011;36331;51.378;0.018;2022-09-02T04:49:41;12.50;;;4.65;;
26060;SDS011;36331;51.378;0.018;2022-09-02T04:52:12;6.43;;;4.88;;
26060;SDS011;36331;51.378;0.018;2022-09-02T04:54:50;7.15;;;5.25;;
26060;SDS011;36331;51.378;0.018;2022-09-02T04:57:23;6.95;;;4.95;;
26060;SDS011;36331;51.378;0.018;2022-09-02T04:59:53;6.90;;;4.90;;
26060;SDS011;36331;51.378;0.018;2022-09-02T05:02:24;7.93;;;5.43;;
26060;SDS011;36331;51.378;0.018;2022-09-02T05:04:58;9.57;;;4.38;;
26060;SDS011;36331;51.378;0.018;2022-09-02T05:07:35;7.93;;;4.82;;
26060;SDS011;36331;51.378;0.018;2022-09-02T05:10:08;11.63;;;5.45;;
26060;SDS011;36331;51.378;0.018;2022-09-02T05:12:42;8.23;;;5.18;;
26060;SDS011;36331;51.378;0.018;2022-09-02T05:15:13;9.63;;;5.35;;
26060;SDS011;36331;51.378;0.018;2022-09-02T05:17:47;8.07;;;5.35;;
26060;SDS011;36331;51.378;0.018;2022-09-02T05:20:20;9.25;;;5.32;;
26060;SDS011;36331;51.378;0.018;2022-09-02T05:25:28;8.25;;;4.50;;
26060;SDS011;36331;51.378;0.018;2022-09-02T05:27:58;10.57;;;6.10;;
26060;SDS011;36331;51.378;0.018;2022-09-02T05:30:34;9.23;;;5.57;;
26060;SDS011;36331;51.378;0.018;2022-09-02T05:33:04;9.15;;;4.35;;
26060;SDS011;36331;51.378;0.018;2022-09-02T05:35:43;6.85;;;4.90;;
26060;SDS011;36331;51.378;0.018;2022-09-02T05:38:17;9.73;;;5.13;;
26060;SDS011;36331;51.378;0.018;2022-09-02T05:40:50;8.73;;;5.47;;
26060;SDS011;36331;51.378;0.018;2022-09-02T05:43:20;8.63;;;4.35;;
26060;SDS011;36331;51.378;0.018;2022-09-02T05:45:51;10.30;;;5.20;;
26060;SDS011;36331;51.378;0.018;2022-09-02T05:48:22;7.55;;;4.15;;
26060;SDS011;36331;51.378;0.018;2022-09-02T05:51:12;7.28;;;5.18;;
26060;SDS011;36331;51.378;0.018;2022-09-02T05:53:44;10.57;;;4.97;;
26060;SDS011;36331;51.378;0.018;2022-09-02T05:56:15;8.02;;;5.35;;
26060;SDS011;36331;51.378;0.018;2022-09-02T05:58:45;10.07;;;4.73;;
26060;SDS011;36331;51.378;0.018;2022-09-02T06:03:51;8.35;;;5.10;;
26060;SDS011;36331;51.378;0.018;2022-09-02T06:06:23;6.93;;;4.65;;
26060;SDS011;36331;51.378;0.018;2022-09-02T06:08:52;8.40;;;5.35;;
26060;SDS011;36331;51.378;0.018;2022-09-02T06:13:59;12.18;;;5.55;;
26060;SDS011;36331;51.378;0.018;2022-09-02T06:16:36;10.75;;;5.53;;
26060;SDS011;36331;51.378;0.018;2022-09-02T06:19:12;10.00;;;5.68;;
26060;SDS011;36331;51.378;0.018;2022-09-02T06:21:52;12.45;;;4.47;;
26060;SDS011;36331;51.378;0.018;2022-09-02T06:24:26;9.45;;;3.72;;
26060;SDS011;36331;51.378;0.018;2022-09-02T06:27:09;14.27;;;4.88;;
26060;SDS011;36331;51.378;0.018;2022-09-02T06:29:44;12.65;;;4.82;;
26060;SDS011;36331;51.378;0.018;2022-09-02T06:32:18;11.00;;;3.80;;
26060;SDS011;36331;51.378;0.018;2022-09-02T06:34:52;10.27;;;4.32;;
26060;SDS011;36331;51.378;0.018;2022-09-02T06:37:27;10.18;;;4.05;;
26060;SDS011;36331;51.378;0.018;2022-09-02T06:39:59;10.68;;;3.78;;
26060;SDS011;36331;51.378;0.018;2022-09-02T06:42:31;7.72;;;3.85;;
26060;SDS011;36331;51.378;0.018;2022-09-02T06:45:13;5.33;;;3.30;;
26060;SDS011;36331;51.378;0.018;2022-09-02T06:47:43;8.00;;;4.00;;
26060;SDS011;36331;51.378;0.018;2022-09-02T06:50:15;6.82;;;3.08;;
26060;SDS011;36331;51.378;0.018;2022-09-02T06:52:54;8.57;;;4.35;;
26060;SDS011;36331;51.378;0.018;2022-09-02T06:55:25;11.68;;;3.75;;
26060;SDS011;36331;51.378;0.018;2022-09-02T06:57:56;11.37;;;3.83;;
26060;SDS011;36331;51.378;0.018;2022-09-02T07:00:26;6.70;;;4.00;;
26060;SDS011;36331;51.378;0.018;2022-09-02T07:02:58;12.23;;;6.70;;
26060;SDS011;36331;51.378;0.018;2022-09-02T07:05:58;14.95;;;8.77;;
26060;SDS011;36331;51.378;0.018;2022-09-02T07:08:30;14.77;;;9.85;;
26060;SDS011;36331;51.378;0.018;2022-09-02T07:11:14;20.67;;;11.55;;
26060;SDS011;36331;51.378;0.018;2022-09-02T07:13:45;14.10;;;9.80;;
26060;SDS011;36331;51.378;0.018;2022-09-02T07:16:21;15.90;;;10.35;;
26060;SDS011;36331;51.378;0.018;2022-09-02T07:18:55;14.27;;;8.80;;
26060;SDS011;36331;51.378;0.018;2022-09-02T07:21:27;11.65;;;8.75;;
26060;SDS011;36331;51.378;0.018;2022-09-02T07:23:58;14.48;;;8.52;;
26060;SDS011;36331;51.378;0.018;2022-09-02T07:26:31;10.95;;;7.03;;
26060;SDS011;36331;51.378;0.018;2022-09-02T07:29:05;14.15;;;7.20;;
26060;SDS011;36331;51.378;0.018;2022-09-02T07:31:47;9.57;;;5.60;;
26060;SDS011;36331;51.378;0.018;2022-09-02T07:34:24;9.98;;;4.80;;
26060;SDS011;36331;51.378;0.018;2022-09-02T07:36:57;14.07;;;5.90;;
26060;SDS011;36331;51.378;0.018;2022-09-02T07:39:43;9.82;;;3.78;;
26060;SDS011;36331;51.378;0.018;2022-09-02T07:42:16;9.90;;;5.20;;
26060;SDS011;36331;51.378;0.018;2022-09-02T07:44:49;17.65;;;4.70;;
26060;SDS011;36331;51.378;0.018;2022-09-02T07:47:28;10.82;;;3.55;;
26060;SDS011;36331;51.378;0.018;2022-09-02T07:50:05;10.40;;;3.97;;
26060;SDS011;36331;51.378;0.018;2022-09-02T07:52:56;9.20;;;3.60;;
26060;SDS011;36331;51.378;0.018;2022-09-02T07:55:31;7.47;;;3.58;;
26060;SDS011;36331;51.378;0.018;2022-09-02T07:58:05;9.70;;;3.25;;
26060;SDS011;36331;51.378;0.018;2022-09-02T08:00:43;6.15;;;3.13;;
26060;SDS011;36331;51.378;0.018;2022-09-02T08:03:14;9.60;;;3.40;;
26060;SDS011;36331;51.378;0.018;2022-09-02T08:05:50;7.38;;;2.90;;
26060;SDS011;36331;51.378;0.018;2022-09-02T08:08:23;6.38;;;2.80;;
26060;SDS011;36331;51.378;0.018;2022-09-02T08:11:00;9.18;;;3.58;;
26060;SDS011;36331;51.378;0.018;2022-09-02T08:13:30;10.27;;;3.03;;
26060;SDS011;36331;51.378;0.018;2022-09-02T08:16:05;6.50;;;3.20;;
26060;SDS011;36331;51.378;0.018;2022-09-02T08:18:37;7.30;;;3.10;;
26060;SDS011;36331;51.378;0.018;2022-09-02T08:21:11;13.02;;;3.83;;
26060;SDS011;36331;51.378;0.018;2022-09-02T08:23:43;15.00;;;3.72;;
26060;SDS011;36331;51.378;0.018;2022-09-02T08:26:29;16.17;;;4.35;;
26060;SDS011;36331;51.378;0.018;2022-09-02T08:29:06;9.02;;;3.03;;
26060;SDS011;36331;51.378;0.018;2022-09-02T08:31:37;9.13;;;2.90;;
26060;SDS011;36331;51.378;0.018;2022-09-02T08:34:08;7.67;;;2.80;;
26060;SDS011;36331;51.378;0.018;2022-09-02T08:36:41;8.95;;;3.17;;
26060;SDS011;36331;51.378;0.018;2022-09-02T08:39:22;9.20;;;2.92;;
26060;SDS011;36331;51.378;0.018;2022-09-02T08:42:04;11.15;;;3.40;;
26060;SDS011;36331;51.378;0.018;2022-09-02T08:44:40;8.30;;;3.28;;
26060;SDS011;36331;51.378;0.018;2022-09-02T08:47:11;8.45;;;2.90;;
26060;SDS011;36331;51.378;0.018;2022-09-02T08:49:45;8.55;;;2.63;;
26060;SDS011;36331;51.378;0.018;2022-09-02T08:52:18;8.20;;;2.80;;
26060;SDS011;36331;51.378;0.018;2022-09-02T08:54:54;9.27;;;3.28;;
26060;SDS011;36331;51.378;0.018;2022-09-02T08:57:25;17.50;;;4.10;;
26060;SDS011;36331;51.378;0.018;2022-09-02T08:59:55;10.23;;;3.35;;
26060;SDS011;36331;51.378;0.018;2022-09-02T09:02:30;5.55;;;2.90;;
26060;SDS011;36331;51.378;0.018;2022-09-02T09:05:06;6.20;;;2.63;;
26060;SDS011;36331;51.378;0.018;2022-09-02T09:07:44;4.57;;;2.42;;
26060;SDS011;36331;51.378;0.018;2022-09-02T09:10:23;7.45;;;2.53;;
26060;SDS011;36331;51.378;0.018;2022-09-02T09:13:07;8.48;;;2.97;;
26060;SDS011;36331;51.378;0.018;2022-09-02T09:15:46;7.53;;;2.63;;
26060;SDS011;36331;51.378;0.018;2022-09-02T09:18:19;6.13;;;2.85;;
26060;SDS011;36331;51.378;0.018;2022-09-02T09:20:54;8.75;;;3.33;;
26060;SDS011;36331;51.378;0.018;2022-09-02T09:23:29;5.10;;;2.33;;
26060;SDS011;36331;51.378;0.018;2022-09-02T09:26:05;10.10;;;2.78;;
26060;SDS011;36331;51.378;0.018;2022-09-02T09:28:43;8.90;;;2.17;;
26060;SDS011;36331;51.378;0.018;2022-09-02T09:31:14;5.53;;;2.15;;
26060;SDS011;36331;51.378;0.018;2022-09-02T09:33:54;5.55;;;2.13;;
26060;SDS011;36331;51.378;0.018;2022-09-02T09:39:24;5.75;;;2.00;;
26060;SDS011;36331;51.378;0.018;2022-09-02T09:41:54;4.90;;;1.60;;
26060;SDS011;36331;51.378;0.018;2022-09-02T09:44:33;6.47;;;2.30;;
26060;SDS011;36331;51.378;0.018;2022-09-02T09:47:03;3.88;;;1.90;;
26060;SDS011;36331;51.378;0.018;2022-09-02T09:49:35;4.43;;;2.15;;
26060;SDS011;36331;51.378;0.018;2022-09-02T09:52:08;7.35;;;3.00;;
26060;SDS011;36331;51.378;0.018;2022-09-02T09:54:45;3.88;;;2.13;;
26060;SDS011;36331;51.378;0.018;2022-09-02T09:57:19;3.97;;;2.17;;
26060;SDS011;36331;51.378;0.018;2022-09-02T10:00:14;10.15;;;2.83;;
26060;SDS011;36331;51.378;0.018;2022-09-02T10:02:53;7.82;;;2.30;;
26060;SDS011;36331;51.378;0.018;2022-09-02T10:05:31;4.20;;;2.10;;
26060;SDS011;36331;51.378;0.018;2022-09-02T10:08:21;5.70;;;2.40;;
26060;SDS011;36331;51.378;0.018;2022-09-02T10:10:55;5.72;;;1.83;;
26060;SDS011;36331;51.378;0.018;2022-09-02T10:13:29;5.65;;;2.08;;
26060;SDS011;36331;51.378;0.018;2022-09-02T10:16:17;6.30;;;2.50;;
26060;SDS011;36331;51.378;0.018;2022-09-02T10:18:52;4.80;;;1.98;;
26060;SDS011;36331;51.378;0.018;2022-09-02T10:21:47;10.35;;;2.50;;
26060;SDS011;36331;51.378;0.018;2022-09-02T10:24:41;6.65;;;2.38;;
26060;SDS011;36331;51.378;0.018;2022-09-02T10:27:31;5.20;;;3.53;;
26060;SDS011;36331;51.378;0.018;2022-09-02T10:30:05;4.65;;;2.47;;
26060;SDS011;36331;51.378;0.018;2022-09-02T10:33:02;2.75;;;1.40;;
26060;SDS011;36331;51.378;0.018;2022-09-02T10:35:39;3.78;;;1.90;;
26060;SDS011;36331;51.378;0.018;2022-09-02T10:38:34;3.72;;;1.88;;
26060;SDS011;36331;51.378;0.018;2022-09-02T10:41:21;4.13;;;2.03;;
26060;SDS011;36331;51.378;0.018;2022-09-02T10:44:10;5.55;;;1.80;;
26060;SDS011;36331;51.378;0.018;2022-09-02T10:46:58;4.22;;;2.05;;
26060;SDS011;36331;51.378;0.018;2022-09-02T10:49:42;8.02;;;2.03;;
26060;SDS011;36331;51.378;0.018;2022-09-02T10:52:31;3.42;;;1.70;;
26060;SDS011;36331;51.378;0.018;2022-09-02T10:55:15;4.90;;;1.75;;
26060;SDS011;36331;51.378;0.018;2022-09-02T10:57:53;6.75;;;1.80;;
26060;SDS011;36331;51.378;0.018;2022-09-02T11:00:43;4.93;;;1.70;;
26060;SDS011;36331;51.378;0.018;2022-09-02T11:03:28;3.33;;;1.52;;
26060;SDS011;36331;51.378;0.018;2022-09-02T11:06:22;5.68;;;1.63;;
26060;SDS011;36331;51.378;0.018;2022-09-02T11:09:19;5.07;;;1.95;;
26060;SDS011;36331;51.378;0.018;2022-09-02T11:12:13;3.13;;;1.55;;
26060;SDS011;36331;51.378;0.018;2022-09-02T11:15:08;4.63;;;2.25;;
26060;SDS011;36331;51.378;0.018;2022-09-02T11:17:43;8.48;;;1.90;;
26060;SDS011;36331;51.378;0.018;2022-09-02T11:20:27;5.28;;;1.85;;
26060;SDS011;36331;51.378;0.018;2022-09-02T11:23:24;5.93;;;2.25;;
26060;SDS011;36331;51.378;0.018;2022-09-02T11:25:59;6.75;;;2.22;;
26060;SDS011;36331;51.378;0.018;2022-09-02T11:28:45;7.45;;;2.20;;
26060;SDS011;36331;51.378;0.018;2022-09-02T11:31:23;4.35;;;1.90;;
26060;SDS011;36331;51.378;0.018;2022-09-02T11:34:10;4.75;;;2.30;;
26060;SDS011;36331;51.378;0.018;2022-09-02T11:36:50;6.25;;;2.50;;
26060;SDS011;36331;51.378;0.018;2022-09-02T11:39:34;4.50;;;2.10;;
26060;SDS011;36331;51.378;0.018;2022-09-02T11:42:49;4.32;;;2.40;;
26060;SDS011;36331;51.378;0.018;2022-09-02T11:45:35;5.00;;;2.50;;
26060;SDS011;36331;51.378;0.018;2022-09-02T11:48:51;5.00;;;2.45;;
26060;SDS011;36331;51.378;0.018;2022-09-02T11:51:30;4.13;;;2.55;;
26060;SDS011;36331;51.378;0.018;2022-09-02T11:54:13;5.57;;;2.08;;
26060;SDS011;36331;51.378;0.018;2022-09-02T11:56:56;10.38;;;3.30;;
26060;SDS011;36331;51.378;0.018;2022-09-02T12:02:13;4.10;;;2.47;;
26060;SDS011;36331;51.378;0.018;2022-09-02T12:07:46;3.63;;;2.78;;
26060;SDS011;36331;51.378;0.018;2022-09-02T12:19:17;3.65;;;2.47;;
26060;SDS011;36331;51.378;0.018;2022-09-02T12:24:49;4.18;;;3.15;;
26060;SDS011;36331;51.378;0.018;2022-09-02T12:27:24;5.10;;;2.53;;
26060;SDS011;36331;51.378;0.018;2022-09-02T12:35:49;3.22;;;2.53;;
26060;SDS011;36331;51.378;0.018;2022-09-02T12:38:27;5.88;;;2.58;;
26060;SDS011;36331;51.378;0.018;2022-09-02T12:41:00;5.47;;;3.42;;
26060;SDS011;36331;51.378;0.018;2022-09-02T12:43:45;4.82;;;3.45;;
26060;SDS011;36331;51.378;0.018;2022-09-02T12:46:17;4.45;;;3.00;;
26060;SDS011;36331;51.378;0.018;2022-09-02T12:48:57;6.07;;;3.13;;
26060;SDS011;36331;51.378;0.018;2022-09-02T12:54:30;8.43;;;4.90;;
26060;SDS011;36331;51.378;0.018;2022-09-02T12:57:06;5.00;;;3.40;;
26060;SDS011;36331;51.378;0.018;2022-09-02T12:59:46;5.82;;;3.10;;
26060;SDS011;36331;51.378;0.018;2022-09-02T13:02:27;3.70;;;2.67;;
26060;SDS011;36331;51.378;0.018;2022-09-02T13:10:51;5.45;;;3.47;;
26060;SDS011;36331;51.378;0.018;2022-09-02T13:13:35;6.78;;;3.53;;
26060;SDS011;36331;51.378;0.018;2022-09-02T13:16:16;6.10;;;3.95;;
26060;SDS011;36331;51.378;0.018;2022-09-02T13:19:08;5.60;;;3.65;;
26060;SDS011;36331;51.378;0.018;2022-09-02T13:30:47;8.20;;;3.90;;
26060;SDS011;36331;51.378;0.018;2022-09-02T13:33:22;4.13;;;3.40;;
26060;SDS011;36331;51.378;0.018;2022-09-02T13:35:52;6.28;;;4.07;;
26060;SDS011;36331;51.378;0.018;2022-09-02T13:38:31;6.82;;;4.15;;
26060;SDS011;36331;51.378;0.018;2022-09-02T13:41:07;8.40;;;4.45;;
26060;SDS011;36331;51.378;0.018;2022-09-02T13:44:07;8.85;;;4.55;;
26060;SDS011;36331;51.378;0.018;2022-09-02T13:46:48;7.85;;;4.32;;
26060;SDS011;36331;51.378;0.018;2022-09-02T13:49:39;6.13;;;4.45;;
26060;SDS011;36331;51.378;0.018;2022-09-02T13:52:10;7.38;;;5.28;;
26060;SDS011;36331;51.378;0.018;2022-09-02T13:54:50;6.28;;;4.57;;
26060;SDS011;36331;51.378;0.018;2022-09-02T13:57:23;6.60;;;4.30;;
26060;SDS011;36331;51.378;0.018;2022-09-02T14:00:06;6.82;;;4.38;;
26060;SDS011;36331;51.378;0.018;2022-09-02T14:03:10;6.03;;;4.70;;
26060;SDS011;36331;51.378;0.018;2022-09-02T14:05:44;8.38;;;6.07;;
26060;SDS011;36331;51.378;0.018;2022-09-02T14:08:54;8.85;;;5.88;;
26060;SDS011;36331;51.378;0.018;2022-09-02T14:11:28;11.05;;;6.50;;
26060;SDS011;36331;51.378;0.018;2022-09-02T14:14:13;11.88;;;7.10;;
26060;SDS011;36331;51.378;0.018;2022-09-02T14:17:18;12.07;;;6.85;;
26060;SDS011;36331;51.378;0.018;2022-09-02T14:20:07;11.13;;;6.47;;
26060;SDS011;36331;51.378;0.018;2022-09-02T14:22:46;10.48;;;6.25;;
26060;SDS011;36331;51.378;0.018;2022-09-02T14:25:22;10.65;;;6.05;;
26060;SDS011;36331;51.378;0.018;2022-09-02T14:27:57;11.52;;;5.95;;
26060;SDS011;36331;51.378;0.018;2022-09-02T14:30:40;8.20;;;6.18;;
26060;SDS011;36331;51.378;0.018;2022-09-02T14:33:17;12.15;;;6.72;;
26060;SDS011;36331;51.378;0.018;2022-09-02T14:36:02;8.73;;;6.32;;
26060;SDS011;36331;51.378;0.018;2022-09-02T14:38:50;8.77;;;7.03;;
26060;SDS011;36331;51.378;0.018;2022-09-02T14:41:21;7.32;;;6.63;;
26060;SDS011;36331;51.378;0.018;2022-09-02T14:43:56;8.23;;;5.93;;
26060;SDS011;36331;51.378;0.018;2022-09-02T14:46:31;7.53;;;6.68;;
26060;SDS011;36331;51.378;0.018;2022-09-02T14:49:02;6.82;;;6.13;;
26060;SDS011;36331;51.378;0.018;2022-09-02T14:51:37;7.80;;;5.65;;
26060;SDS011;36331;51.378;0.018;2022-09-02T14:54:12;7.40;;;5.70;;
26060;SDS011;36331;51.378;0.018;2022-09-02T14:57:00;9.43;;;5.93;;
26060;SDS011;36331;51.378;0.018;2022-09-02T14:59:46;7.72;;;6.35;;
26060;SDS011;36331;51.378;0.018;2022-09-02T15:02:31;8.35;;;5.75;;
26060;SDS011;36331;51.378;0.018;2022-09-02T15:05:12;9.20;;;6.18;;
26060;SDS011;36331;51.378;0.018;2022-09-02T15:07:49;7.97;;;6.03;;
26060;SDS011;36331;51.378;0.018;2022-09-02T15:10:19;9.80;;;7.10;;
26060;SDS011;36331;51.378;0.018;2022-09-02T15:13:01;10.63;;;7.93;;
26060;SDS011;36331;51.378;0.018;2022-09-02T15:15:33;12.15;;;8.15;;
26060;SDS011;36331;51.378;0.018;2022-09-02T15:18:15;9.00;;;8.13;;
26060;SDS011;36331;51.378;0.018;2022-09-02T15:20:44;11.40;;;8.52;;
26060;SDS011;36331;51.378;0.018;2022-09-02T15:23:15;9.57;;;8.55;;
26060;SDS011;36331;51.378;0.018;2022-09-02T15:25:45;10.55;;;8.60;;
26060;SDS011;36331;51.378;0.018;2022-09-02T15:28:16;8.63;;;7.72;;
26060;SDS011;36331;51.378;0.018;2022-09-02T15:30:57;8.85;;;7.18;;
26060;SDS011;36331;51.378;0.018;2022-09-02T15:33:33;10.02;;;7.40;;
26060;SDS011;36331;51.378;0.018;2022-09-02T15:36:12;10.95;;;8.27;;
26060;SDS011;36331;51.378;0.018;2022-09-02T15:38:42;11.77;;;8.23;;
26060;SDS011;36331;51.378;0.018;2022-09-02T15:41:27;11.23;;;7.82;;
26060;SDS011;36331;51.378;0.018;2022-09-02T15:44:03;11.90;;;7.90;;
26060;SDS011;36331;51.378;0.018;2022-09-02T15:46:36;11.88;;;9.02;;
26060;SDS011;36331;51.378;0.018;2022-09-02T15:49:10;9.95;;;7.80;;
26060;SDS011;36331;51.378;0.018;2022-09-02T15:51:42;10.13;;;9.02;;
26060;SDS011;36331;51.378;0.018;2022-09-02T15:54:14;11.82;;;9.23;;
26060;SDS011;36331;51.378;0.018;2022-09-02T15:56:54;13.85;;;9.77;;
26060;SDS011;36331;51.378;0.018;2022-09-02T15:59:25;12.05;;;10.10;;
26060;SDS011;36331;51.378;0.018;2022-09-02T16:01:57;13.45;;;10.27;;
26060;SDS011;36331;51.378;0.018;2022-09-02T16:04:26;16.35;;;9.88;;
26060;SDS011;36331;51.378;0.018;2022-09-02T16:06:56;14.10;;;10.60;;
26060;SDS011;36331;51.378;0.018;2022-09-02T16:09:29;12.60;;;9.30;;
26060;SDS011;36331;51.378;0.018;2022-09-02T16:11:58;12.35;;;9.80;;
26060;SDS011;36331;51.378;0.018;2022-09-02T16:14:30;10.95;;;9.63;;
26060;SDS011;36331;51.378;0.018;2022-09-02T16:17:07;12.98;;;9.20;;
26060;SDS011;36331;51.378;0.018;2022-09-02T16:19:45;16.05;;;10.80;;
26060;SDS011;36331;51.378;0.018;2022-09-02T16:22:17;13.05;;;11.20;;
26060;SDS011;36331;51.378;0.018;2022-09-02T16:24:51;15.13;;;11.82;;